Cape Peony — 3FDX6 — position and weather

sailwx.info

Track history (hours):
 
Tides and Currents Weather Stations Pressure Air Temp Water Temp Dewpoint Dewpoint Depression Visibility Wind Speed Wind Dir Waves Ship Positions

Cape Peony

Last reported at 2014-Jun-28 02:20 UTC. Time now 2014-Jul-24 04:28 UTC.
Position S 38°06' E 140°20'.
Warning: this ship's position is 26 days out of date.

Length 292 m; draft 18.3 m.

Type: Cargo ship. MMSI: 373590000.

Date/timePositionNaut miles runAvg speedWind from/ knotsBaromVisibWave heightAir tempDewpointWater temp
2014-Jun-28 02:20S 38°06' E 140°20'9 4.0
2014-Jun-28 00:07S 38°12' E 140°29'9 5.4
2014-Jun-27 22:28S 38°18' E 140°38'5 5.8
2014-Jun-27 21:32S 38°21' E 140°43'6 5.7
2014-Jun-27 20:31S 38°25' E 140°48'5 5.5
2014-Jun-27 19:33S 38°28' E 140°54'5 4.9
2014-Jun-27 18:33S 38°31' E 140°59'5 5.0
2014-Jun-27 17:33S 38°34' E 141°04'5 4.8
2014-Jun-27 16:32S 38°36' E 141°10'5 4.9
2014-Jun-27 15:32S 38°39' E 141°15'5 4.9
2014-Jun-27 14:31S 38°40' E 141°21'5 5.6
2014-Jun-27 13:32S 38°41' E 141°28'6 6.1
2014-Jun-27 12:33S 38°42' E 141°36'6 6.2
2014-Jun-27 11:33S 38°44' E 141°43'7 6.5
2014-Jun-27 10:32S 38°45' E 141°52'7 6.8
2014-Jun-27 09:33S 38°46' E 142°00'7 7.2
2014-Jun-27 08:32S 38°47' E 142°09'7 7.3
2014-Jun-27 07:33S 38°48' E 142°18'7 7.0
2014-Jun-27 06:30S 38°49' E 142°28'143 6.2
2014-Jun-26 07:31S 39°14' E 145°29'14 4.6
2014-Jun-26 04:32S 39°19' E 145°46'4 4.1
2014-Jun-26 03:32S 39°20' E 145°51'3 3.2
2014-Jun-26 02:32S 39°22' E 145°55'2 2.1
2014-Jun-26 01:34S 39°24' E 145°56'2 1.5
2014-Jun-26 00:33S 39°22' E 145°55'2 0.8
2014-Jun-25 22:28S 39°21' E 145°54'1 0.5
2014-Jun-25 21:28S 39°21' E 145°53'0 0.4
2014-Jun-25 20:34S 39°22' E 145°53'3 2.6
2014-Jun-25 19:34S 39°20' E 145°50'1 0.9
2014-Jun-25 18:33S 39°20' E 145°49'4 3.9
2014-Jun-25 17:33S 39°19' E 145°53'5 4.6
2014-Jun-25 16:33S 39°17' E 145°59'5 4.9
2014-Jun-25 15:33S 39°16' E 146°05'5 5.3
2014-Jun-25 14:33S 39°14' E 146°12'5 5.2
2014-Jun-25 13:33S 39°13' E 146°18'6 6.0
2014-Jun-25 12:32S 39°10' E 146°25'6 6.6
2014-Jun-25 11:33S 39°08' E 146°33'6 6.2
2014-Jun-25 10:32S 39°06' E 146°41'6 5.6
2014-Jun-25 09:33S 39°05' E 146°48'8 7.8
2014-Jun-25 08:32S 39°02' E 146°57'9 9.0
2014-Jun-25 07:33S 38°59' E 147°08'8 7.5
2014-Jun-25 06:33S 38°57' E 147°17'6 6.4
2014-Jun-25 05:33S 38°55' E 147°25'6 6.1
2014-Jun-25 04:33S 38°53' E 147°33'6 5.8
2014-Jun-25 03:28S 38°51' E 147°40'105 6.5
2014-Jun-24 11:18S 37°56' E 149°35'5 6.2
2014-Jun-24 10:33S 37°53' E 149°40'7 6.9
2014-Jun-24 09:33S 37°49' E 149°46'8 8.3
2014-Jun-24 08:33S 37°43' E 149°54'1110.6
2014-Jun-24 07:31S 37°35' E 150°03'9 9.0
2014-Jun-24 06:33S 37°27' E 150°08'9 8.9
2014-Jun-24 05:33S 37°19' E 150°12'9 8.6
2014-Jun-24 04:33S 37°11' E 150°16'25710.7
2014-Jun-23 04:33S 33°12' E 152°15'1111.1
2014-Jun-23 03:33S 33°02' E 152°20'1111.4
2014-Jun-23 02:33S 32°52' E 152°25'1211.5
2014-Jun-23 01:33S 32°41' E 152°30'1211.7
2014-Jun-23 00:33S 32°30' E 152°37'1212.1
2014-Jun-22 23:33S 32°19' E 152°41'1212.2
2014-Jun-22 22:33S 32°07' E 152°46'24112.4
2014-Jun-22 03:06S 28°11' E 153°44'712.7
2014-Jun-22 02:33S 28°05' E 153°43'1212.4
2014-Jun-22 01:33S 27°52' E 153°43'1313.1
2014-Jun-22 00:33S 27°39' E 153°42'1413.9
2014-Jun-21 23:34S 27°25' E 153°41'2814.1
2014-Jun-21 21:32S 26°57' E 153°39'1412.8
2014-Jun-21 20:25S 26°43' E 153°39'1011.8
2014-Jun-21 19:33S 26°32' E 153°38'1211.9
2014-Jun-21 18:33S 26°20' E 153°37'1211.7
2014-Jun-21 17:33S 26°09' E 153°34'1211.7
2014-Jun-21 16:33S 25°58' E 153°33'  
Track history (hours):
 
Tides and Currents Weather Stations Pressure Air Temp Water Temp Dewpoint Dewpoint Depression Visibility Wind Speed Wind Dir Waves Ship Positions

Cape Peony

Last reported at 2014-Jun-28 02:20 UTC. Time now 2014-Jul-24 04:28 UTC.
Position S 38°06' E 140°20'.
Warning: this ship's position is 26 days out of date.

Length 292 m; draft 18.3 m.

Type: Cargo ship. MMSI: 373590000.

Date/timePositionNaut miles runAvg speedWind from/ knotsBaromVisibWave heightAir tempDewpointWater temp
2014-Jun-28 02:20S 38°06' E 140°20'9 4.0
2014-Jun-28 00:07S 38°12' E 140°29'9 5.4
2014-Jun-27 22:28S 38°18' E 140°38'5 5.8
2014-Jun-27 21:32S 38°21' E 140°43'6 5.7
2014-Jun-27 20:31S 38°25' E 140°48'5 5.5
2014-Jun-27 19:33S 38°28' E 140°54'5 4.9
2014-Jun-27 18:33S 38°31' E 140°59'5 5.0
2014-Jun-27 17:33S 38°34' E 141°04'5 4.8
2014-Jun-27 16:32S 38°36' E 141°10'5 4.9
2014-Jun-27 15:32S 38°39' E 141°15'5 4.9
2014-Jun-27 14:31S 38°40' E 141°21'5 5.6
2014-Jun-27 13:32S 38°41' E 141°28'6 6.1
2014-Jun-27 12:33S 38°42' E 141°36'6 6.2
2014-Jun-27 11:33S 38°44' E 141°43'7 6.5
2014-Jun-27 10:32S 38°45' E 141°52'7 6.8
2014-Jun-27 09:33S 38°46' E 142°00'7 7.2
2014-Jun-27 08:32S 38°47' E 142°09'7 7.3
2014-Jun-27 07:33S 38°48' E 142°18'7 7.0
2014-Jun-27 06:30S 38°49' E 142°28'143 6.2
2014-Jun-26 07:31S 39°14' E 145°29'14 4.6
2014-Jun-26 04:32S 39°19' E 145°46'4 4.1
2014-Jun-26 03:32S 39°20' E 145°51'3 3.2
2014-Jun-26 02:32S 39°22' E 145°55'2 2.1
2014-Jun-26 01:34S 39°24' E 145°56'2 1.5
2014-Jun-26 00:33S 39°22' E 145°55'2 0.8
2014-Jun-25 22:28S 39°21' E 145°54'1 0.5
2014-Jun-25 21:28S 39°21' E 145°53'0 0.4
2014-Jun-25 20:34S 39°22' E 145°53'3 2.6
2014-Jun-25 19:34S 39°20' E 145°50'1 0.9
2014-Jun-25 18:33S 39°20' E 145°49'4 3.9
2014-Jun-25 17:33S 39°19' E 145°53'5 4.6
2014-Jun-25 16:33S 39°17' E 145°59'5 4.9
2014-Jun-25 15:33S 39°16' E 146°05'5 5.3
2014-Jun-25 14:33S 39°14' E 146°12'5 5.2
2014-Jun-25 13:33S 39°13' E 146°18'6 6.0
2014-Jun-25 12:32S 39°10' E 146°25'6 6.6
2014-Jun-25 11:33S 39°08' E 146°33'6 6.2
2014-Jun-25 10:32S 39°06' E 146°41'6 5.6
2014-Jun-25 09:33S 39°05' E 146°48'8 7.8
2014-Jun-25 08:32S 39°02' E 146°57'9 9.0
2014-Jun-25 07:33S 38°59' E 147°08'8 7.5
2014-Jun-25 06:33S 38°57' E 147°17'6 6.4
2014-Jun-25 05:33S 38°55' E 147°25'6 6.1
2014-Jun-25 04:33S 38°53' E 147°33'6 5.8
2014-Jun-25 03:28S 38°51' E 147°40'105 6.5
2014-Jun-24 11:18S 37°56' E 149°35'5 6.2
2014-Jun-24 10:33S 37°53' E 149°40'7 6.9
2014-Jun-24 09:33S 37°49' E 149°46'8 8.3
2014-Jun-24 08:33S 37°43' E 149°54'1110.6
2014-Jun-24 07:31S 37°35' E 150°03'9 9.0
2014-Jun-24 06:33S 37°27' E 150°08'9 8.9
2014-Jun-24 05:33S 37°19' E 150°12'9 8.6
2014-Jun-24 04:33S 37°11' E 150°16'25710.7
2014-Jun-23 04:33S 33°12' E 152°15'1111.1
2014-Jun-23 03:33S 33°02' E 152°20'1111.4
2014-Jun-23 02:33S 32°52' E 152°25'1211.5
2014-Jun-23 01:33S 32°41' E 152°30'1211.7
2014-Jun-23 00:33S 32°30' E 152°37'1212.1
2014-Jun-22 23:33S 32°19' E 152°41'1212.2
2014-Jun-22 22:33S 32°07' E 152°46'24112.4
2014-Jun-22 03:06S 28°11' E 153°44'712.7
2014-Jun-22 02:33S 28°05' E 153°43'1212.4
2014-Jun-22 01:33S 27°52' E 153°43'1313.1
2014-Jun-22 00:33S 27°39' E 153°42'1413.9
2014-Jun-21 23:34S 27°25' E 153°41'2814.1
2014-Jun-21 21:32S 26°57' E 153°39'1412.8
2014-Jun-21 20:25S 26°43' E 153°39'1011.8
2014-Jun-21 19:33S 26°32' E 153°38'1211.9
2014-Jun-21 18:33S 26°20' E 153°37'1211.7
2014-Jun-21 17:33S 26°09' E 153°34'1211.7
2014-Jun-21 16:33S 25°58' E 153°33'  

Dump ship's entire track history